sensor_id;sensor_type;location;lat;lon;timestamp;P1;durP1;ratioP1;P2;durP2;ratioP2
8652;SDS011;4364;52.426;9.424;2023-07-20T00:00:06;1.97;;;1.20;;
8652;SDS011;4364;52.426;9.424;2023-07-20T00:02:38;2.03;;;1.20;;
8652;SDS011;4364;52.426;9.424;2023-07-20T00:05:05;2.67;;;1.40;;
8652;SDS011;4364;52.426;9.424;2023-07-20T00:07:32;1.83;;;1.20;;
8652;SDS011;4364;52.426;9.424;2023-07-20T00:09:58;1.70;;;1.20;;
8652;SDS011;4364;52.426;9.424;2023-07-20T00:12:25;3.73;;;1.20;;
8652;SDS011;4364;52.426;9.424;2023-07-20T00:14:51;1.37;;;1.10;;
8652;SDS011;4364;52.426;9.424;2023-07-20T00:17:19;1.70;;;1.20;;
8652;SDS011;4364;52.426;9.424;2023-07-20T00:19:47;1.97;;;1.40;;
8652;SDS011;4364;52.426;9.424;2023-07-20T00:22:14;1.20;;;1.10;;
8652;SDS011;4364;52.426;9.424;2023-07-20T00:24:40;1.97;;;1.30;;
8652;SDS011;4364;52.426;9.424;2023-07-20T00:27:07;2.00;;;1.20;;
8652;SDS011;4364;52.426;9.424;2023-07-20T00:29:34;2.43;;;1.83;;
8652;SDS011;4364;52.426;9.424;2023-07-20T00:32:01;2.20;;;1.90;;
8652;SDS011;4364;52.426;9.424;2023-07-20T00:34:31;2.20;;;2.00;;
8652;SDS011;4364;52.426;9.424;2023-07-20T00:36:57;2.77;;;2.30;;
8652;SDS011;4364;52.426;9.424;2023-07-20T00:39:24;2.43;;;1.93;;
8652;SDS011;4364;52.426;9.424;2023-07-20T00:41:51;1.97;;;1.70;;
8652;SDS011;4364;52.426;9.424;2023-07-20T00:44:17;4.03;;;2.00;;
8652;SDS011;4364;52.426;9.424;2023-07-20T00:46:44;2.77;;;1.77;;
8652;SDS011;4364;52.426;9.424;2023-07-20T00:49:11;2.10;;;1.50;;
8652;SDS011;4364;52.426;9.424;2023-07-20T00:51:37;2.10;;;1.77;;
8652;SDS011;4364;52.426;9.424;2023-07-20T00:54:04;1.97;;;1.50;;
8652;SDS011;4364;52.426;9.424;2023-07-20T00:56:31;3.20;;;1.50;;
8652;SDS011;4364;52.426;9.424;2023-07-20T00:58:58;2.03;;;1.47;;
8652;SDS011;4364;52.426;9.424;2023-07-20T01:01:24;2.23;;;1.50;;
8652;SDS011;4364;52.426;9.424;2023-07-20T01:03:51;1.53;;;1.43;;
8652;SDS011;4364;52.426;9.424;2023-07-20T01:09:22;2.00;;;1.20;;
8652;SDS011;4364;52.426;9.424;2023-07-20T01:12:00;1.33;;;1.20;;
8652;SDS011;4364;52.426;9.424;2023-07-20T01:14:33;2.30;;;1.60;;
8652;SDS011;4364;52.426;9.424;2023-07-20T01:17:01;1.50;;;1.40;;
8652;SDS011;4364;52.426;9.424;2023-07-20T01:19:28;2.37;;;1.57;;
8652;SDS011;4364;52.426;9.424;2023-07-20T01:25:12;4.63;;;1.50;;
8652;SDS011;4364;52.426;9.424;2023-07-20T01:28:00;2.20;;;1.53;;
8652;SDS011;4364;52.426;9.424;2023-07-20T01:33:35;2.17;;;1.70;;
8652;SDS011;4364;52.426;9.424;2023-07-20T01:36:02;2.90;;;1.50;;
8652;SDS011;4364;52.426;9.424;2023-07-20T01:38:30;1.77;;;1.63;;
8652;SDS011;4364;52.426;9.424;2023-07-20T01:40:57;1.50;;;1.40;;
8652;SDS011;4364;52.426;9.424;2023-07-20T01:43:24;1.70;;;1.60;;
8652;SDS011;4364;52.426;9.424;2023-07-20T01:45:50;1.50;;;1.30;;
8652;SDS011;4364;52.426;9.424;2023-07-20T01:48:17;2.43;;;1.30;;
8652;SDS011;4364;52.426;9.424;2023-07-20T01:50:44;2.03;;;1.50;;
8652;SDS011;4364;52.426;9.424;2023-07-20T01:53:10;1.90;;;1.70;;
8652;SDS011;4364;52.426;9.424;2023-07-20T01:55:37;2.40;;;1.70;;
8652;SDS011;4364;52.426;9.424;2023-07-20T01:58:04;1.70;;;1.60;;
8652;SDS011;4364;52.426;9.424;2023-07-20T02:00:32;1.47;;;1.37;;
8652;SDS011;4364;52.426;9.424;2023-07-20T02:02:58;2.83;;;1.50;;
8652;SDS011;4364;52.426;9.424;2023-07-20T02:05:25;2.40;;;1.67;;
8652;SDS011;4364;52.426;9.424;2023-07-20T02:07:52;2.57;;;1.90;;
8652;SDS011;4364;52.426;9.424;2023-07-20T02:10:19;2.27;;;1.50;;
8652;SDS011;4364;52.426;9.424;2023-07-20T02:12:45;1.80;;;1.70;;
8652;SDS011;4364;52.426;9.424;2023-07-20T02:15:12;2.00;;;1.80;;
8652;SDS011;4364;52.426;9.424;2023-07-20T02:17:39;1.50;;;1.33;;
8652;SDS011;4364;52.426;9.424;2023-07-20T02:20:08;1.80;;;1.63;;
8652;SDS011;4364;52.426;9.424;2023-07-20T02:22:36;1.93;;;1.80;;
8652;SDS011;4364;52.426;9.424;2023-07-20T02:25:04;2.10;;;1.90;;
8652;SDS011;4364;52.426;9.424;2023-07-20T02:27:31;2.30;;;2.00;;
8652;SDS011;4364;52.426;9.424;2023-07-20T02:29:58;2.07;;;1.87;;
8652;SDS011;4364;52.426;9.424;2023-07-20T02:32:25;3.47;;;2.07;;
8652;SDS011;4364;52.426;9.424;2023-07-20T02:34:51;2.03;;;1.83;;
8652;SDS011;4364;52.426;9.424;2023-07-20T02:37:18;2.30;;;2.10;;
8652;SDS011;4364;52.426;9.424;2023-07-20T02:39:45;2.30;;;1.80;;
8652;SDS011;4364;52.426;9.424;2023-07-20T02:42:11;1.70;;;1.60;;
8652;SDS011;4364;52.426;9.424;2023-07-20T02:44:38;2.03;;;1.63;;
8652;SDS011;4364;52.426;9.424;2023-07-20T02:47:04;2.40;;;1.80;;
8652;SDS011;4364;52.426;9.424;2023-07-20T02:49:31;3.27;;;2.03;;
8652;SDS011;4364;52.426;9.424;2023-07-20T02:51:58;2.10;;;1.83;;
8652;SDS011;4364;52.426;9.424;2023-07-20T02:54:25;2.87;;;1.97;;
8652;SDS011;4364;52.426;9.424;2023-07-20T02:56:51;2.27;;;2.07;;
8652;SDS011;4364;52.426;9.424;2023-07-20T02:59:18;1.50;;;1.40;;
8652;SDS011;4364;52.426;9.424;2023-07-20T03:01:45;3.20;;;2.30;;
8652;SDS011;4364;52.426;9.424;2023-07-20T03:04:12;3.90;;;2.27;;
8652;SDS011;4364;52.426;9.424;2023-07-20T03:06:38;2.50;;;2.00;;
8652;SDS011;4364;52.426;9.424;2023-07-20T03:09:05;2.23;;;1.93;;
8652;SDS011;4364;52.426;9.424;2023-07-20T03:11:32;2.40;;;1.83;;
8652;SDS011;4364;52.426;9.424;2023-07-20T03:14:00;2.27;;;1.70;;
8652;SDS011;4364;52.426;9.424;2023-07-20T03:16:27;2.33;;;1.93;;
8652;SDS011;4364;52.426;9.424;2023-07-20T03:18:54;2.13;;;2.00;;
8652;SDS011;4364;52.426;9.424;2023-07-20T03:21:24;3.40;;;1.60;;
8652;SDS011;4364;52.426;9.424;2023-07-20T03:23:51;2.63;;;1.83;;
8652;SDS011;4364;52.426;9.424;2023-07-20T03:26:17;2.90;;;2.03;;
8652;SDS011;4364;52.426;9.424;2023-07-20T03:28:44;2.97;;;2.00;;
8652;SDS011;4364;52.426;9.424;2023-07-20T03:31:11;3.47;;;2.00;;
8652;SDS011;4364;52.426;9.424;2023-07-20T03:33:39;4.07;;;1.90;;
8652;SDS011;4364;52.426;9.424;2023-07-20T03:36:08;3.17;;;2.17;;
8652;SDS011;4364;52.426;9.424;2023-07-20T03:38:36;3.40;;;1.80;;
8652;SDS011;4364;52.426;9.424;2023-07-20T03:41:02;2.57;;;2.10;;
8652;SDS011;4364;52.426;9.424;2023-07-20T03:43:29;3.63;;;2.10;;
8652;SDS011;4364;52.426;9.424;2023-07-20T03:45:56;3.73;;;2.40;;
8652;SDS011;4364;52.426;9.424;2023-07-20T03:48:25;4.37;;;2.37;;
8652;SDS011;4364;52.426;9.424;2023-07-20T03:50:52;5.03;;;2.53;;
8652;SDS011;4364;52.426;9.424;2023-07-20T03:53:20;3.13;;;2.83;;
8652;SDS011;4364;52.426;9.424;2023-07-20T03:55:48;3.30;;;3.00;;
8652;SDS011;4364;52.426;9.424;2023-07-20T03:58:16;5.13;;;3.00;;
8652;SDS011;4364;52.426;9.424;2023-07-20T04:00:53;6.67;;;3.73;;
8652;SDS011;4364;52.426;9.424;2023-07-20T04:03:19;3.47;;;3.17;;
8652;SDS011;4364;52.426;9.424;2023-07-20T04:05:47;4.10;;;3.50;;
8652;SDS011;4364;52.426;9.424;2023-07-20T04:08:13;3.87;;;3.30;;
8652;SDS011;4364;52.426;9.424;2023-07-20T04:10:43;4.00;;;3.43;;
8652;SDS011;4364;52.426;9.424;2023-07-20T04:13:10;3.70;;;3.37;;
8652;SDS011;4364;52.426;9.424;2023-07-20T04:15:38;4.60;;;3.53;;
8652;SDS011;4364;52.426;9.424;2023-07-20T04:18:04;4.60;;;4.13;;
8652;SDS011;4364;52.426;9.424;2023-07-20T04:20:31;4.67;;;4.23;;
8652;SDS011;4364;52.426;9.424;2023-07-20T04:22:58;4.80;;;4.27;;
8652;SDS011;4364;52.426;9.424;2023-07-20T04:25:24;4.77;;;4.20;;
8652;SDS011;4364;52.426;9.424;2023-07-20T04:27:51;5.57;;;4.77;;
8652;SDS011;4364;52.426;9.424;2023-07-20T04:30:19;6.90;;;4.83;;
8652;SDS011;4364;52.426;9.424;2023-07-20T04:32:48;5.93;;;4.53;;
8652;SDS011;4364;52.426;9.424;2023-07-20T04:38:31;5.63;;;4.73;;
8652;SDS011;4364;52.426;9.424;2023-07-20T04:41:08;4.93;;;3.80;;
8652;SDS011;4364;52.426;9.424;2023-07-20T04:43:42;5.83;;;5.00;;
8652;SDS011;4364;52.426;9.424;2023-07-20T04:46:11;9.50;;;4.93;;
8652;SDS011;4364;52.426;9.424;2023-07-20T04:48:38;4.73;;;4.00;;
8652;SDS011;4364;52.426;9.424;2023-07-20T04:51:07;6.03;;;4.10;;
8652;SDS011;4364;52.426;9.424;2023-07-20T04:53:34;4.80;;;4.07;;
8652;SDS011;4364;52.426;9.424;2023-07-20T04:56:01;5.97;;;4.20;;
8652;SDS011;4364;52.426;9.424;2023-07-20T04:58:28;6.67;;;4.37;;
8652;SDS011;4364;52.426;9.424;2023-07-20T05:00:54;4.53;;;4.10;;
8652;SDS011;4364;52.426;9.424;2023-07-20T05:03:21;5.03;;;4.07;;
8652;SDS011;4364;52.426;9.424;2023-07-20T05:05:49;5.23;;;4.23;;
8652;SDS011;4364;52.426;9.424;2023-07-20T05:08:17;4.33;;;3.90;;
8652;SDS011;4364;52.426;9.424;2023-07-20T05:10:43;4.53;;;3.80;;
8652;SDS011;4364;52.426;9.424;2023-07-20T05:13:10;6.13;;;4.60;;
8652;SDS011;4364;52.426;9.424;2023-07-20T05:15:37;5.00;;;4.27;;
8652;SDS011;4364;52.426;9.424;2023-07-20T05:18:05;5.80;;;4.37;;
8652;SDS011;4364;52.426;9.424;2023-07-20T05:20:32;5.93;;;4.40;;
8652;SDS011;4364;52.426;9.424;2023-07-20T05:22:59;6.50;;;4.70;;
8652;SDS011;4364;52.426;9.424;2023-07-20T05:25:27;6.47;;;4.53;;
8652;SDS011;4364;52.426;9.424;2023-07-20T05:27:56;7.67;;;5.40;;
8652;SDS011;4364;52.426;9.424;2023-07-20T05:30:23;5.20;;;4.70;;
8652;SDS011;4364;52.426;9.424;2023-07-20T05:32:50;6.30;;;4.60;;
8652;SDS011;4364;52.426;9.424;2023-07-20T05:35:19;5.63;;;5.03;;
8652;SDS011;4364;52.426;9.424;2023-07-20T05:37:45;5.67;;;4.93;;
8652;SDS011;4364;52.426;9.424;2023-07-20T05:40:12;6.10;;;4.37;;
8652;SDS011;4364;52.426;9.424;2023-07-20T05:42:41;5.80;;;5.20;;
8652;SDS011;4364;52.426;9.424;2023-07-20T05:45:07;5.90;;;5.13;;
8652;SDS011;4364;52.426;9.424;2023-07-20T05:47:34;7.03;;;5.87;;
8652;SDS011;4364;52.426;9.424;2023-07-20T05:50:02;7.83;;;7.03;;
8652;SDS011;4364;52.426;9.424;2023-07-20T05:52:29;7.93;;;6.30;;
8652;SDS011;4364;52.426;9.424;2023-07-20T05:54:56;6.50;;;5.90;;
8652;SDS011;4364;52.426;9.424;2023-07-20T05:57:22;8.27;;;6.77;;
8652;SDS011;4364;52.426;9.424;2023-07-20T05:59:49;7.47;;;6.77;;
8652;SDS011;4364;52.426;9.424;2023-07-20T06:02:16;8.53;;;7.03;;
8652;SDS011;4364;52.426;9.424;2023-07-20T06:04:43;7.37;;;5.70;;
8652;SDS011;4364;52.426;9.424;2023-07-20T06:07:09;8.30;;;7.37;;
8652;SDS011;4364;52.426;9.424;2023-07-20T06:09:36;8.30;;;7.40;;
8652;SDS011;4364;52.426;9.424;2023-07-20T06:12:03;9.47;;;8.27;;
8652;SDS011;4364;52.426;9.424;2023-07-20T06:14:29;8.23;;;7.43;;
8652;SDS011;4364;52.426;9.424;2023-07-20T06:16:56;9.10;;;8.20;;
8652;SDS011;4364;52.426;9.424;2023-07-20T06:19:23;9.30;;;8.30;;
8652;SDS011;4364;52.426;9.424;2023-07-20T06:21:49;8.93;;;7.10;;
8652;SDS011;4364;52.426;9.424;2023-07-20T06:24:16;8.50;;;7.53;;
8652;SDS011;4364;52.426;9.424;2023-07-20T06:26:43;7.17;;;6.37;;
8652;SDS011;4364;52.426;9.424;2023-07-20T06:29:10;6.37;;;5.77;;
8652;SDS011;4364;52.426;9.424;2023-07-20T06:31:37;6.90;;;6.20;;
8652;SDS011;4364;52.426;9.424;2023-07-20T06:34:03;8.07;;;6.13;;
8652;SDS011;4364;52.426;9.424;2023-07-20T06:36:30;6.90;;;6.13;;
8652;SDS011;4364;52.426;9.424;2023-07-20T06:38:57;7.20;;;6.20;;
8652;SDS011;4364;52.426;9.424;2023-07-20T06:41:26;6.87;;;6.03;;
8652;SDS011;4364;52.426;9.424;2023-07-20T06:43:55;6.60;;;6.00;;
8652;SDS011;4364;52.426;9.424;2023-07-20T06:46:26;6.70;;;5.83;;
8652;SDS011;4364;52.426;9.424;2023-07-20T06:48:53;6.80;;;6.10;;
8652;SDS011;4364;52.426;9.424;2023-07-20T06:51:23;7.80;;;6.50;;
8652;SDS011;4364;52.426;9.424;2023-07-20T06:53:50;8.20;;;7.27;;
8652;SDS011;4364;52.426;9.424;2023-07-20T06:56:17;7.80;;;6.67;;
8652;SDS011;4364;52.426;9.424;2023-07-20T06:58:46;8.87;;;7.93;;
8652;SDS011;4364;52.426;9.424;2023-07-20T07:01:13;9.33;;;8.13;;
8652;SDS011;4364;52.426;9.424;2023-07-20T07:03:41;8.73;;;7.87;;
8652;SDS011;4364;52.426;9.424;2023-07-20T07:06:07;9.17;;;8.20;;
8652;SDS011;4364;52.426;9.424;2023-07-20T07:08:34;9.33;;;8.43;;
8652;SDS011;4364;52.426;9.424;2023-07-20T07:11:02;9.77;;;8.93;;
8652;SDS011;4364;52.426;9.424;2023-07-20T07:13:28;10.10;;;9.20;;
8652;SDS011;4364;52.426;9.424;2023-07-20T07:15:55;9.00;;;8.20;;
8652;SDS011;4364;52.426;9.424;2023-07-20T07:18:22;9.97;;;8.03;;
8652;SDS011;4364;52.426;9.424;2023-07-20T07:20:53;9.03;;;7.60;;
8652;SDS011;4364;52.426;9.424;2023-07-20T07:23:20;7.77;;;6.97;;
8652;SDS011;4364;52.426;9.424;2023-07-20T07:25:47;7.50;;;6.80;;
8652;SDS011;4364;52.426;9.424;2023-07-20T07:28:14;8.87;;;6.53;;
8652;SDS011;4364;52.426;9.424;2023-07-20T07:30:41;5.93;;;5.33;;
8652;SDS011;4364;52.426;9.424;2023-07-20T07:33:08;5.70;;;5.10;;
8652;SDS011;4364;52.426;9.424;2023-07-20T07:35:36;5.37;;;4.87;;
8652;SDS011;4364;52.426;9.424;2023-07-20T07:38:03;6.83;;;5.10;;
8652;SDS011;4364;52.426;9.424;2023-07-20T07:40:44;5.30;;;4.80;;
8652;SDS011;4364;52.426;9.424;2023-07-20T07:43:11;5.27;;;4.77;;
8652;SDS011;4364;52.426;9.424;2023-07-20T07:45:40;5.37;;;4.80;;
8652;SDS011;4364;52.426;9.424;2023-07-20T07:48:07;5.07;;;4.63;;
8652;SDS011;4364;52.426;9.424;2023-07-20T07:50:34;5.17;;;4.10;;
8652;SDS011;4364;52.426;9.424;2023-07-20T07:53:01;4.63;;;4.00;;
8652;SDS011;4364;52.426;9.424;2023-07-20T07:55:27;5.10;;;4.60;;
8652;SDS011;4364;52.426;9.424;2023-07-20T07:57:54;4.67;;;3.80;;
8652;SDS011;4364;52.426;9.424;2023-07-20T08:00:21;5.23;;;3.30;;
8652;SDS011;4364;52.426;9.424;2023-07-20T08:02:47;4.20;;;2.60;;
8652;SDS011;4364;52.426;9.424;2023-07-20T08:05:14;3.37;;;3.07;;
8652;SDS011;4364;52.426;9.424;2023-07-20T08:07:41;4.03;;;3.00;;
8652;SDS011;4364;52.426;9.424;2023-07-20T08:10:08;3.30;;;3.00;;
8652;SDS011;4364;52.426;9.424;2023-07-20T08:12:35;5.43;;;2.70;;
8652;SDS011;4364;52.426;9.424;2023-07-20T08:15:02;3.13;;;2.90;;
8652;SDS011;4364;52.426;9.424;2023-07-20T08:17:30;4.17;;;2.80;;
8652;SDS011;4364;52.426;9.424;2023-07-20T08:19:57;4.47;;;2.93;;
8652;SDS011;4364;52.426;9.424;2023-07-20T08:22:23;2.90;;;2.40;;
8652;SDS011;4364;52.426;9.424;2023-07-20T08:24:50;2.00;;;1.80;;
8652;SDS011;4364;52.426;9.424;2023-07-20T08:27:16;2.17;;;1.50;;
8652;SDS011;4364;52.426;9.424;2023-07-20T08:29:43;3.17;;;1.90;;
8652;SDS011;4364;52.426;9.424;2023-07-20T08:32:10;2.60;;;2.00;;
8652;SDS011;4364;52.426;9.424;2023-07-20T08:34:36;4.50;;;2.50;;
8652;SDS011;4364;52.426;9.424;2023-07-20T08:37:03;2.90;;;2.00;;
8652;SDS011;4364;52.426;9.424;2023-07-20T08:39:30;2.27;;;1.70;;
8652;SDS011;4364;52.426;9.424;2023-07-20T08:41:57;2.87;;;1.90;;
8652;SDS011;4364;52.426;9.424;2023-07-20T08:44:31;2.17;;;1.97;;
8652;SDS011;4364;52.426;9.424;2023-07-20T08:47:00;4.43;;;2.00;;
8652;SDS011;4364;52.426;9.424;2023-07-20T08:49:31;2.07;;;1.83;;
8652;SDS011;4364;52.426;9.424;2023-07-20T08:51:59;2.33;;;2.00;;
8652;SDS011;4364;52.426;9.424;2023-07-20T08:54:32;2.80;;;2.00;;
8652;SDS011;4364;52.426;9.424;2023-07-20T08:57:01;2.47;;;1.50;;
8652;SDS011;4364;52.426;9.424;2023-07-20T08:59:30;2.57;;;1.53;;
8652;SDS011;4364;52.426;9.424;2023-07-20T09:01:57;2.03;;;1.40;;
8652;SDS011;4364;52.426;9.424;2023-07-20T09:04:24;1.40;;;1.30;;
8652;SDS011;4364;52.426;9.424;2023-07-20T09:06:51;1.47;;;1.37;;
8652;SDS011;4364;52.426;9.424;2023-07-20T09:09:18;1.10;;;1.00;;
8652;SDS011;4364;52.426;9.424;2023-07-20T09:11:51;2.60;;;1.20;;
8652;SDS011;4364;52.426;9.424;2023-07-20T09:14:17;1.57;;;1.20;;
8652;SDS011;4364;52.426;9.424;2023-07-20T09:16:49;1.77;;;1.13;;
8652;SDS011;4364;52.426;9.424;2023-07-20T09:19:21;1.93;;;1.10;;
8652;SDS011;4364;52.426;9.424;2023-07-20T09:21:49;2.13;;;1.20;;
8652;SDS011;4364;52.426;9.424;2023-07-20T09:24:17;1.87;;;1.20;;
8652;SDS011;4364;52.426;9.424;2023-07-20T09:26:46;1.50;;;1.40;;
8652;SDS011;4364;52.426;9.424;2023-07-20T09:29:20;1.67;;;1.20;;
8652;SDS011;4364;52.426;9.424;2023-07-20T09:32:00;1.90;;;1.10;;
8652;SDS011;4364;52.426;9.424;2023-07-20T09:34:30;1.33;;;1.10;;
8652;SDS011;4364;52.426;9.424;2023-07-20T09:37:03;1.63;;;1.20;;
8652;SDS011;4364;52.426;9.424;2023-07-20T09:39:31;1.87;;;1.00;;
8652;SDS011;4364;52.426;9.424;2023-07-20T09:42:00;1.23;;;1.10;;
8652;SDS011;4364;52.426;9.424;2023-07-20T09:44:31;1.00;;;0.90;;
8652;SDS011;4364;52.426;9.424;2023-07-20T09:47:02;2.37;;;1.10;;
8652;SDS011;4364;52.426;9.424;2023-07-20T09:49:30;2.13;;;1.20;;
8652;SDS011;4364;52.426;9.424;2023-07-20T09:52:17;2.67;;;1.33;;
8652;SDS011;4364;52.426;9.424;2023-07-20T09:55:05;1.70;;;1.00;;
8652;SDS011;4364;52.426;9.424;2023-07-20T09:57:33;1.47;;;1.20;;
8652;SDS011;4364;52.426;9.424;2023-07-20T10:00:02;1.53;;;1.10;;
8652;SDS011;4364;52.426;9.424;2023-07-20T10:02:41;1.30;;;1.00;;
8652;SDS011;4364;52.426;9.424;2023-07-20T10:05:12;1.30;;;1.13;;
8652;SDS011;4364;52.426;9.424;2023-07-20T10:07:44;1.97;;;1.10;;
8652;SDS011;4364;52.426;9.424;2023-07-20T10:10:16;1.20;;;1.10;;
8652;SDS011;4364;52.426;9.424;2023-07-20T10:12:46;1.10;;;1.00;;
8652;SDS011;4364;52.426;9.424;2023-07-20T10:15:19;2.03;;;1.10;;
8652;SDS011;4364;52.426;9.424;2023-07-20T10:18:07;1.63;;;1.23;;
8652;SDS011;4364;52.426;9.424;2023-07-20T10:20:39;2.03;;;1.43;;
8652;SDS011;4364;52.426;9.424;2023-07-20T10:23:30;2.17;;;1.37;;
8652;SDS011;4364;52.426;9.424;2023-07-20T10:25:59;2.40;;;1.00;;
8652;SDS011;4364;52.426;9.424;2023-07-20T10:28:28;3.10;;;1.20;;
8652;SDS011;4364;52.426;9.424;2023-07-20T10:30:54;0.87;;;0.80;;
8652;SDS011;4364;52.426;9.424;2023-07-20T10:33:21;1.70;;;1.10;;
8652;SDS011;4364;52.426;9.424;2023-07-20T10:36:00;3.40;;;1.20;;
8652;SDS011;4364;52.426;9.424;2023-07-20T10:38:38;2.47;;;1.00;;
8652;SDS011;4364;52.426;9.424;2023-07-20T10:41:19;1.37;;;1.10;;
8652;SDS011;4364;52.426;9.424;2023-07-20T10:43:48;1.97;;;1.20;;
8652;SDS011;4364;52.426;9.424;2023-07-20T10:46:16;1.83;;;1.13;;
8652;SDS011;4364;52.426;9.424;2023-07-20T10:49:06;2.70;;;1.37;;
8652;SDS011;4364;52.426;9.424;2023-07-20T10:51:47;3.53;;;1.20;;
8652;SDS011;4364;52.426;9.424;2023-07-20T10:56:42;2.43;;;1.10;;
8652;SDS011;4364;52.426;9.424;2023-07-20T11:01:55;1.57;;;1.10;;
8652;SDS011;4364;52.426;9.424;2023-07-20T11:04:41;1.57;;;1.13;;
8652;SDS011;4364;52.426;9.424;2023-07-20T11:07:09;1.70;;;1.33;;
8652;SDS011;4364;52.426;9.424;2023-07-20T11:09:37;1.77;;;1.30;;
8652;SDS011;4364;52.426;9.424;2023-07-20T11:12:09;2.00;;;1.10;;
8652;SDS011;4364;52.426;9.424;2023-07-20T11:14:43;1.57;;;1.30;;
8652;SDS011;4364;52.426;9.424;2023-07-20T11:17:20;2.17;;;1.20;;
8652;SDS011;4364;52.426;9.424;2023-07-20T11:19:48;2.00;;;1.17;;
8652;SDS011;4364;52.426;9.424;2023-07-20T11:22:18;2.00;;;1.23;;
8652;SDS011;4364;52.426;9.424;2023-07-20T11:24:46;1.80;;;1.20;;
8652;SDS011;4364;52.426;9.424;2023-07-20T11:27:13;3.60;;;1.20;;
8652;SDS011;4364;52.426;9.424;2023-07-20T11:29:39;1.93;;;1.10;;
8652;SDS011;4364;52.426;9.424;2023-07-20T11:32:06;1.97;;;1.23;;
8652;SDS011;4364;52.426;9.424;2023-07-20T11:34:33;1.87;;;1.20;;
8652;SDS011;4364;52.426;9.424;2023-07-20T11:37:01;2.37;;;1.33;;
8652;SDS011;4364;52.426;9.424;2023-07-20T11:39:31;1.83;;;1.20;;
8652;SDS011;4364;52.426;9.424;2023-07-20T11:41:58;4.50;;;1.40;;
8652;SDS011;4364;52.426;9.424;2023-07-20T11:44:28;2.33;;;1.53;;
8652;SDS011;4364;52.426;9.424;2023-07-20T11:47:00;1.70;;;1.27;;
8652;SDS011;4364;52.426;9.424;2023-07-20T11:49:30;1.07;;;1.00;;
8652;SDS011;4364;52.426;9.424;2023-07-20T11:52:00;4.57;;;1.40;;
8652;SDS011;4364;52.426;9.424;2023-07-20T11:54:27;2.80;;;1.10;;
8652;SDS011;4364;52.426;9.424;2023-07-20T11:56:54;1.90;;;1.20;;
8652;SDS011;4364;52.426;9.424;2023-07-20T11:59:24;1.50;;;1.20;;
8652;SDS011;4364;52.426;9.424;2023-07-20T12:01:51;1.87;;;1.27;;
8652;SDS011;4364;52.426;9.424;2023-07-20T12:04:18;1.37;;;1.20;;
8652;SDS011;4364;52.426;9.424;2023-07-20T12:06:46;1.50;;;1.10;;
8652;SDS011;4364;52.426;9.424;2023-07-20T12:09:13;1.60;;;1.10;;
8652;SDS011;4364;52.426;9.424;2023-07-20T12:11:42;2.10;;;1.20;;
8652;SDS011;4364;52.426;9.424;2023-07-20T12:14:11;2.03;;;1.17;;
8652;SDS011;4364;52.426;9.424;2023-07-20T12:16:43;1.20;;;1.00;;
8652;SDS011;4364;52.426;9.424;2023-07-20T12:19:11;1.23;;;1.00;;
8652;SDS011;4364;52.426;9.424;2023-07-20T12:21:39;2.70;;;1.17;;
8652;SDS011;4364;52.426;9.424;2023-07-20T12:24:10;1.20;;;1.10;;
8652;SDS011;4364;52.426;9.424;2023-07-20T12:26:37;1.20;;;1.03;;
8652;SDS011;4364;52.426;9.424;2023-07-20T12:29:03;1.07;;;0.97;;
8652;SDS011;4364;52.426;9.424;2023-07-20T12:31:30;1.60;;;1.20;;
8652;SDS011;4364;52.426;9.424;2023-07-20T12:34:02;3.73;;;1.40;;
8652;SDS011;4364;52.426;9.424;2023-07-20T12:36:28;3.60;;;1.20;;
8652;SDS011;4364;52.426;9.424;2023-07-20T12:38:55;2.10;;;1.07;;
8652;SDS011;4364;52.426;9.424;2023-07-20T12:41:21;1.80;;;1.00;;
8652;SDS011;4364;52.426;9.424;2023-07-20T12:43:50;3.37;;;1.30;;
8652;SDS011;4364;52.426;9.424;2023-07-20T12:46:17;2.40;;;1.13;;
8652;SDS011;4364;52.426;9.424;2023-07-20T12:48:44;1.83;;;1.30;;
8652;SDS011;4364;52.426;9.424;2023-07-20T12:51:15;1.37;;;1.07;;
8652;SDS011;4364;52.426;9.424;2023-07-20T12:53:41;2.00;;;0.93;;
8652;SDS011;4364;52.426;9.424;2023-07-20T12:56:08;1.40;;;1.00;;
8652;SDS011;4364;52.426;9.424;2023-07-20T12:58:38;2.73;;;1.30;;
8652;SDS011;4364;52.426;9.424;2023-07-20T13:01:04;1.70;;;1.00;;
8652;SDS011;4364;52.426;9.424;2023-07-20T13:03:31;1.53;;;1.30;;
8652;SDS011;4364;52.426;9.424;2023-07-20T13:05:59;2.83;;;1.60;;
8652;SDS011;4364;52.426;9.424;2023-07-20T13:08:28;2.80;;;1.60;;
8652;SDS011;4364;52.426;9.424;2023-07-20T13:10:55;2.07;;;1.50;;
8652;SDS011;4364;52.426;9.424;2023-07-20T13:13:21;2.07;;;1.50;;
8652;SDS011;4364;52.426;9.424;2023-07-20T13:15:48;2.27;;;1.50;;
8652;SDS011;4364;52.426;9.424;2023-07-20T13:18:15;1.73;;;1.40;;
8652;SDS011;4364;52.426;9.424;2023-07-20T13:20:42;2.47;;;1.30;;
8652;SDS011;4364;52.426;9.424;2023-07-20T13:23:08;2.43;;;1.47;;
8652;SDS011;4364;52.426;9.424;2023-07-20T13:25:35;3.60;;;1.60;;
8652;SDS011;4364;52.426;9.424;2023-07-20T13:28:02;2.13;;;1.20;;
8652;SDS011;4364;52.426;9.424;2023-07-20T13:30:29;4.20;;;1.50;;
8652;SDS011;4364;52.426;9.424;2023-07-20T13:32:56;6.13;;;1.40;;
8652;SDS011;4364;52.426;9.424;2023-07-20T13:35:23;2.00;;;1.40;;
8652;SDS011;4364;52.426;9.424;2023-07-20T13:37:49;1.63;;;1.43;;
8652;SDS011;4364;52.426;9.424;2023-07-20T13:40:17;3.87;;;1.40;;
8652;SDS011;4364;52.426;9.424;2023-07-20T13:42:45;3.07;;;1.30;;
8652;SDS011;4364;52.426;9.424;2023-07-20T13:45:12;2.70;;;1.40;;
8652;SDS011;4364;52.426;9.424;2023-07-20T13:47:40;2.07;;;1.30;;
8652;SDS011;4364;52.426;9.424;2023-07-20T13:50:11;3.00;;;1.77;;
8652;SDS011;4364;52.426;9.424;2023-07-20T13:52:57;3.40;;;1.30;;
8652;SDS011;4364;52.426;9.424;2023-07-20T13:55:26;1.70;;;1.20;;
8652;SDS011;4364;52.426;9.424;2023-07-20T13:57:56;1.87;;;1.40;;
8652;SDS011;4364;52.426;9.424;2023-07-20T14:00:23;1.33;;;1.20;;
8652;SDS011;4364;52.426;9.424;2023-07-20T14:02:53;2.93;;;1.37;;
8652;SDS011;4364;52.426;9.424;2023-07-20T14:05:23;1.90;;;1.30;;
8652;SDS011;4364;52.426;9.424;2023-07-20T14:07:52;3.50;;;1.50;;
8652;SDS011;4364;52.426;9.424;2023-07-20T14:10:19;1.73;;;1.37;;
8652;SDS011;4364;52.426;9.424;2023-07-20T14:12:47;1.53;;;1.20;;
8652;SDS011;4364;52.426;9.424;2023-07-20T14:15:14;2.80;;;1.40;;
8652;SDS011;4364;52.426;9.424;2023-07-20T14:17:40;4.47;;;1.40;;
8652;SDS011;4364;52.426;9.424;2023-07-20T14:20:07;1.60;;;1.20;;
8652;SDS011;4364;52.426;9.424;2023-07-20T14:22:47;2.70;;;1.40;;
8652;SDS011;4364;52.426;9.424;2023-07-20T14:25:17;1.97;;;1.40;;
8652;SDS011;4364;52.426;9.424;2023-07-20T14:27:45;2.20;;;1.37;;
8652;SDS011;4364;52.426;9.424;2023-07-20T14:30:12;2.33;;;1.20;;
8652;SDS011;4364;52.426;9.424;2023-07-20T14:32:38;2.67;;;1.30;;
8652;SDS011;4364;52.426;9.424;2023-07-20T14:35:05;3.37;;;1.47;;
8652;SDS011;4364;52.426;9.424;2023-07-20T14:37:36;2.93;;;1.10;;
8652;SDS011;4364;52.426;9.424;2023-07-20T14:40:02;1.60;;;1.30;;
8652;SDS011;4364;52.426;9.424;2023-07-20T14:42:31;2.37;;;1.20;;
8652;SDS011;4364;52.426;9.424;2023-07-20T14:44:58;1.73;;;1.20;;
8652;SDS011;4364;52.426;9.424;2023-07-20T14:47:27;1.53;;;1.13;;
8652;SDS011;4364;52.426;9.424;2023-07-20T14:49:54;1.97;;;1.50;;
8652;SDS011;4364;52.426;9.424;2023-07-20T14:52:21;1.40;;;1.20;;
8652;SDS011;4364;52.426;9.424;2023-07-20T14:54:47;2.03;;;1.40;;
8652;SDS011;4364;52.426;9.424;2023-07-20T14:57:15;2.30;;;1.17;;
8652;SDS011;4364;52.426;9.424;2023-07-20T14:59:42;3.53;;;1.40;;
8652;SDS011;4364;52.426;9.424;2023-07-20T15:02:10;2.23;;;1.20;;
8652;SDS011;4364;52.426;9.424;2023-07-20T15:04:37;2.80;;;1.10;;
8652;SDS011;4364;52.426;9.424;2023-07-20T15:07:04;2.13;;;1.10;;
8652;SDS011;4364;52.426;9.424;2023-07-20T15:09:30;2.23;;;1.30;;
8652;SDS011;4364;52.426;9.424;2023-07-20T15:11:57;1.10;;;1.00;;
8652;SDS011;4364;52.426;9.424;2023-07-20T15:14:23;1.43;;;1.20;;
8652;SDS011;4364;52.426;9.424;2023-07-20T15:16:50;1.57;;;1.30;;
8652;SDS011;4364;52.426;9.424;2023-07-20T15:19:17;2.17;;;1.43;;
8652;SDS011;4364;52.426;9.424;2023-07-20T15:21:43;3.87;;;1.50;;
8652;SDS011;4364;52.426;9.424;2023-07-20T15:24:10;2.13;;;1.50;;
8652;SDS011;4364;52.426;9.424;2023-07-20T15:26:37;4.67;;;1.87;;
8652;SDS011;4364;52.426;9.424;2023-07-20T15:29:03;4.07;;;1.80;;
8652;SDS011;4364;52.426;9.424;2023-07-20T15:31:30;3.10;;;1.90;;
8652;SDS011;4364;52.426;9.424;2023-07-20T15:33:59;2.83;;;1.67;;
8652;SDS011;4364;52.426;9.424;2023-07-20T15:36:26;3.80;;;1.90;;
8652;SDS011;4364;52.426;9.424;2023-07-20T15:38:53;4.97;;;2.00;;